Main page
Satellite images 10-day forecastsClimateMarine weather Cyclones Lightning AirportsFAQ Newsletter About
Weather : Europe Africa North America South America Asia Australia-Oceania Others
Languages Contact

Tel Aviv / Ben Gurion, Israel

Ben Gurion Airport

latitude: 32-00N, longitude: 034-54E, elevation: 40 m


METAR: LLBG 271150Z 32007KT CAVOK 31/06 Q1011 NOSIG
TAF: LLBG 271101Z 2712/2812 32008KT CAVOK BECMG 2716/2718 VRB03KT BECMG 2808/2810 27008KT TX33/2811Z TN16/2803Z

Time: 14:59 (11:59 UTC)

Current weather observation

The report was made 9 minutes ago, at 11:50 UTC
Wind 7 kt from the Northwest
Temperature 31°C
Humidity 21%
Pressure 1011 hPa
Visibility 10 km or more
no clouds below 1500 m and no cumulonimbus

Change units

Forecast

The report was made 58 minutes ago, at 11:01 UTC
Forecast valid from 27 at 12 UTC to 28 at 12 UTC
Wind 8 kt from the Northwest
Visibility 10 km or more
no clouds below 1500 m and no cumulonimbus
Becoming
from 27 at 16 UTC to 27 at 18 UTC
Wind 3 kt from variable directions
Becoming
from 28 at 08 UTC to 28 at 10 UTC
Wind 8 kt from the West
The information on this site is subject to a disclaimer
Weather : Europe Africa North America South America Asia Australia-Oceania Others
Satellite images 10-day forecastsClimateMarine weather Cyclones Lightning AirportsFAQ Languages Contact Newsletter About